createdAt,value
2018-03-20T00:02:24.844Z,-2.77
2018-03-20T00:04:50.941Z,-2.67
2018-03-20T00:07:17.067Z,-2.71
2018-03-20T00:09:43.135Z,-2.60
2018-03-20T00:12:09.213Z,-2.47
2018-03-20T00:14:35.355Z,-2.45
2018-03-20T00:17:01.483Z,-2.63
2018-03-20T00:19:27.554Z,-2.78
2018-03-20T00:21:53.615Z,-2.89
2018-03-20T00:24:19.637Z,-3.01
2018-03-20T00:26:45.672Z,-3.13
2018-03-20T00:29:11.706Z,-3.13
2018-03-20T00:31:37.773Z,-3.19
2018-03-20T00:34:03.810Z,-3.19
2018-03-20T00:36:29.883Z,-3.19
2018-03-20T00:38:55.950Z,-3.09
2018-03-20T00:41:22.036Z,-2.83
2018-03-20T00:46:41.328Z,-2.58
2018-03-20T00:49:07.653Z,-2.65
2018-03-20T00:51:33.738Z,-2.65
2018-03-20T00:54:00.171Z,-2.50
2018-03-20T00:56:26.243Z,-2.37
2018-03-20T00:58:52.263Z,-2.31
2018-03-20T01:01:18.394Z,-2.31
2018-03-20T01:03:44.477Z,-2.32
2018-03-20T01:06:10.547Z,-2.29
2018-03-20T01:08:36.637Z,-2.24
2018-03-20T01:11:02.758Z,-2.21
2018-03-20T01:13:28.795Z,-2.12
2018-03-20T01:15:54.858Z,-2.12
2018-03-20T01:18:20.887Z,-2.08
2018-03-20T01:20:46.993Z,-2.04
2018-03-20T01:23:13.055Z,-1.98
2018-03-20T01:25:39.166Z,-1.94
2018-03-20T01:28:20.138Z,-1.89
2018-03-20T01:30:46.159Z,-1.84
2018-03-20T01:33:12.200Z,-1.88
2018-03-20T01:35:38.219Z,-1.84
2018-03-20T01:38:04.480Z,-1.88
2018-03-20T01:40:30.524Z,-1.73
2018-03-20T01:42:56.589Z,-1.72
2018-03-20T01:45:22.715Z,-1.69
2018-03-20T01:47:48.738Z,-1.66
2018-03-20T01:50:14.824Z,-1.68
2018-03-20T01:52:40.859Z,-1.58
2018-03-20T01:55:06.915Z,-1.49
2018-03-20T01:57:32.958Z,-1.40
2018-03-20T01:59:59.032Z,-1.37
2018-03-20T02:02:25.105Z,-1.35
2018-03-20T02:04:51.131Z,-1.22
2018-03-20T02:07:17.316Z,-1.17
2018-03-20T02:09:43.468Z,-1.06
2018-03-20T02:12:09.548Z,-1.04
2018-03-20T02:14:35.724Z,-1.00
2018-03-20T02:17:01.844Z,-0.96
2018-03-20T02:19:27.882Z,-0.91
2018-03-20T02:21:54.001Z,-0.87
2018-03-20T02:24:20.043Z,-0.85
2018-03-20T02:26:46.087Z,-0.83
2018-03-20T02:29:12.106Z,-0.91
2018-03-20T02:31:38.187Z,-0.90
2018-03-20T02:34:04.231Z,-1.00
2018-03-20T02:36:30.298Z,-0.89
2018-03-20T02:38:56.369Z,-0.86
2018-03-20T02:41:22.435Z,-0.76
2018-03-20T02:43:48.509Z,-0.80
2018-03-20T02:46:19.378Z,-0.72
2018-03-20T02:48:45.433Z,-0.67
2018-03-20T02:51:11.563Z,-0.64
2018-03-20T02:53:37.795Z,-0.64
2018-03-20T02:56:03.817Z,-0.64
2018-03-20T02:58:29.866Z,-0.66
2018-03-20T03:00:55.934Z,-0.71
2018-03-20T03:03:21.962Z,-0.78
2018-03-20T03:05:48.019Z,-0.75
2018-03-20T03:08:14.057Z,-0.77
2018-03-20T03:10:40.119Z,-0.64
2018-03-20T03:13:06.242Z,-0.64
2018-03-20T03:15:32.656Z,-0.67
2018-03-20T03:17:58.774Z,-0.72
2018-03-20T03:20:24.831Z,-0.66
2018-03-20T03:22:50.843Z,-0.64
2018-03-20T03:25:17.725Z,-0.68
2018-03-20T03:27:43.875Z,-0.75
2018-03-20T03:30:09.957Z,-0.80
2018-03-20T03:32:36.048Z,-0.86
2018-03-20T03:35:02.125Z,-0.83
2018-03-20T03:37:28.230Z,-0.89
2018-03-20T03:39:54.281Z,-0.94
2018-03-20T03:42:20.326Z,-0.93
2018-03-20T03:44:46.416Z,-0.84
2018-03-20T03:47:12.647Z,-0.82
2018-03-20T03:49:38.700Z,-0.84
2018-03-20T03:52:04.737Z,-0.81
2018-03-20T03:54:30.787Z,-0.95
2018-03-20T03:56:56.829Z,-0.91
2018-03-20T03:59:23.036Z,-0.94
2018-03-20T04:01:49.104Z,-0.82
2018-03-20T04:04:15.121Z,-0.76
2018-03-20T04:06:41.169Z,-0.72
2018-03-20T04:09:08.261Z,-0.75
2018-03-20T04:11:34.305Z,-0.85
2018-03-20T04:14:00.366Z,-0.84
2018-03-20T04:16:26.516Z,-0.90
2018-03-20T04:18:52.595Z,-0.90
2018-03-20T04:21:18.638Z,-0.79
2018-03-20T04:23:44.725Z,-0.85
2018-03-20T04:26:10.771Z,-0.86
2018-03-20T04:28:36.877Z,-0.89
2018-03-20T04:31:02.928Z,-0.99
2018-03-20T04:33:28.990Z,-0.86
2018-03-20T04:35:55.112Z,-0.96
2018-03-20T04:38:21.147Z,-0.98
2018-03-20T04:40:47.359Z,-1.07
2018-03-20T04:43:13.418Z,-1.12
2018-03-20T04:45:39.455Z,-1.01
2018-03-20T04:48:05.526Z,-1.07
2018-03-20T04:50:31.577Z,-1.14
2018-03-20T04:52:57.668Z,-1.19
2018-03-20T04:55:23.682Z,-1.29
2018-03-20T04:57:49.756Z,-1.17
2018-03-20T05:00:15.814Z,-1.14
2018-03-20T05:02:41.918Z,-1.03
2018-03-20T05:05:08.014Z,-1.00
2018-03-20T05:07:34.058Z,-1.03
2018-03-20T05:10:00.072Z,-1.03
2018-03-20T05:12:26.215Z,-1.00
2018-03-20T05:14:52.230Z,-0.98
2018-03-20T05:17:18.279Z,-0.87
2018-03-20T05:19:50.315Z,-0.90
2018-03-20T05:22:19.314Z,-0.76
2018-03-20T05:24:45.336Z,-0.85
2018-03-20T05:27:11.396Z,-0.82
2018-03-20T05:29:37.568Z,-0.81
2018-03-20T05:32:03.599Z,-0.74
2018-03-20T05:34:29.694Z,-0.69
2018-03-20T05:36:55.749Z,-0.62
2018-03-20T05:39:21.824Z,-0.64
2018-03-20T05:41:47.898Z,-0.63
2018-03-20T05:44:14.042Z,-0.59
2018-03-20T05:46:43.984Z,-0.54
2018-03-20T05:49:12.915Z,-0.46
2018-03-20T05:54:37.859Z,-0.36
2018-03-20T05:57:03.947Z,-0.36
2018-03-20T05:59:29.979Z,-0.31
2018-03-20T06:01:56.093Z,-0.27
2018-03-20T06:04:22.284Z,-0.20
2018-03-20T06:06:48.299Z,-0.20
2018-03-20T06:09:14.372Z,-0.21
2018-03-20T06:11:40.560Z,-0.13
2018-03-20T06:14:06.666Z,-0.09
2018-03-20T06:16:32.826Z,-0.03
2018-03-20T06:18:58.893Z,0.00
2018-03-20T06:21:24.929Z,0.00
2018-03-20T06:23:51.040Z,0.06
2018-03-20T06:26:17.098Z,0.11
2018-03-20T06:28:43.122Z,0.13
2018-03-20T06:31:09.208Z,0.19
2018-03-20T06:33:35.252Z,0.28
2018-03-20T06:36:01.348Z,0.31
2018-03-20T06:38:27.410Z,0.37
2018-03-20T06:40:53.508Z,0.40
2018-03-20T06:43:19.645Z,0.48
2018-03-20T06:45:45.723Z,0.45
2018-03-20T06:48:11.844Z,0.46
2018-03-20T06:50:37.898Z,0.57
2018-03-20T06:53:04.070Z,0.57
2018-03-20T06:55:30.118Z,0.61
2018-03-20T06:57:56.176Z,0.64
2018-03-20T07:00:22.209Z,0.63
2018-03-20T07:02:48.568Z,0.68
2018-03-20T07:05:14.640Z,0.71
2018-03-20T07:07:40.711Z,0.75
2018-03-20T07:10:06.766Z,0.78
2018-03-20T07:12:32.854Z,0.82
2018-03-20T07:14:59.132Z,0.83
2018-03-20T07:17:25.272Z,0.89
2018-03-20T07:19:51.322Z,0.93
2018-03-20T07:22:32.337Z,0.95
2018-03-20T07:24:58.414Z,0.96
2018-03-20T07:27:24.460Z,0.99
2018-03-20T07:29:50.484Z,1.01
2018-03-20T07:32:17.938Z,1.03
2018-03-20T07:34:44.056Z,1.05
2018-03-20T07:37:10.082Z,1.09
2018-03-20T07:39:36.138Z,1.13
2018-03-20T07:42:03.888Z,1.11
2018-03-20T07:44:30.007Z,1.13
2018-03-20T07:46:56.047Z,1.13
2018-03-20T07:49:22.185Z,1.18
2018-03-20T07:51:48.441Z,1.20
2018-03-20T07:54:14.513Z,1.22
2018-03-20T07:56:40.583Z,1.29
2018-03-20T07:59:06.617Z,1.28
2018-03-20T08:01:32.865Z,1.28
2018-03-20T08:03:58.850Z,1.29
2018-03-20T08:06:24.898Z,1.30
2018-03-20T08:08:51.016Z,1.30
2018-03-20T08:11:17.044Z,1.33
2018-03-20T08:13:43.193Z,1.33
2018-03-20T08:16:09.393Z,1.40
2018-03-20T08:21:28.586Z,1.38
2018-03-20T08:23:54.753Z,1.42
2018-03-20T08:26:20.869Z,1.42
2018-03-20T08:28:46.939Z,1.47
2018-03-20T08:31:12.984Z,1.49
2018-03-20T08:33:39.054Z,1.49
2018-03-20T08:36:05.182Z,1.54
2018-03-20T08:38:31.239Z,1.54
2018-03-20T08:40:57.328Z,1.55
2018-03-20T08:43:23.415Z,1.54
2018-03-20T08:45:49.681Z,1.59
2018-03-20T08:48:15.737Z,1.55
2018-03-20T08:50:41.813Z,1.54
2018-03-20T08:53:07.973Z,1.63
2018-03-20T08:55:34.030Z,1.60
2018-03-20T08:58:00.091Z,1.61
2018-03-20T09:00:26.177Z,1.64
2018-03-20T09:02:52.289Z,1.66
2018-03-20T09:05:18.359Z,1.67
2018-03-20T09:07:44.433Z,1.65
2018-03-20T09:10:10.448Z,1.66
2018-03-20T09:12:36.508Z,1.71
2018-03-20T09:15:03.461Z,1.66
2018-03-20T09:17:29.514Z,1.68
2018-03-20T09:19:55.604Z,1.63
2018-03-20T09:22:21.627Z,1.63
2018-03-20T09:24:47.712Z,1.64
2018-03-20T09:27:13.744Z,1.60
2018-03-20T09:29:39.817Z,1.59
2018-03-20T09:32:05.827Z,1.54
2018-03-20T09:34:32.176Z,1.56
2018-03-20T09:36:58.190Z,1.61
2018-03-20T09:39:24.439Z,1.60
2018-03-20T09:41:50.494Z,1.62
2018-03-20T09:44:16.669Z,1.60
2018-03-20T09:46:42.759Z,1.66
2018-03-20T09:49:08.859Z,1.63
2018-03-20T09:51:35.150Z,1.72
2018-03-20T09:54:01.212Z,1.75
2018-03-20T09:56:27.272Z,1.80
2018-03-20T09:58:53.376Z,1.85
2018-03-20T10:01:19.429Z,1.89
2018-03-20T10:03:45.483Z,1.92
2018-03-20T10:06:11.529Z,1.94
2018-03-20T10:08:37.579Z,1.96
2018-03-20T10:11:03.720Z,2.04
2018-03-20T10:13:29.869Z,2.01
2018-03-20T10:15:55.962Z,2.06
2018-03-20T10:18:22.207Z,2.13
2018-03-20T10:20:48.253Z,2.17
2018-03-20T10:23:14.458Z,2.26
2018-03-20T10:25:40.504Z,2.31
2018-03-20T10:28:06.622Z,2.38
2018-03-20T10:30:32.674Z,2.43
2018-03-20T10:32:58.767Z,2.56
2018-03-20T10:35:24.856Z,2.58
2018-03-20T10:37:51.105Z,2.65
2018-03-20T10:40:17.227Z,2.73
2018-03-20T10:42:43.286Z,2.78
2018-03-20T10:45:09.387Z,2.73
2018-03-20T10:47:35.448Z,2.84
2018-03-20T10:50:01.504Z,2.90
2018-03-20T10:52:27.810Z,3.10
2018-03-20T10:54:53.861Z,3.23
2018-03-20T10:57:20.166Z,3.33
2018-03-20T10:59:46.221Z,3.42
2018-03-20T11:02:18.249Z,3.48
2018-03-20T11:04:44.312Z,3.58
2018-03-20T11:07:10.489Z,3.65
2018-03-20T11:09:36.603Z,3.91
2018-03-20T11:12:02.692Z,3.96
2018-03-20T11:14:28.768Z,4.02
2018-03-20T11:16:54.833Z,4.11
2018-03-20T11:19:20.948Z,4.14
2018-03-20T11:21:46.968Z,4.15
2018-03-20T11:24:13.188Z,4.32
2018-03-20T11:26:39.230Z,4.52
2018-03-20T11:29:05.282Z,4.94
2018-03-20T11:31:31.569Z,5.29
2018-03-20T11:33:57.590Z,5.83
2018-03-20T11:36:23.765Z,6.13
2018-03-20T11:38:49.812Z,6.30
2018-03-20T11:41:15.911Z,6.69
2018-03-20T11:43:42.220Z,6.69
2018-03-20T11:46:08.222Z,7.02
2018-03-20T11:48:34.465Z,7.43
2018-03-20T11:51:00.575Z,7.23
2018-03-20T11:53:26.778Z,6.74
2018-03-20T11:55:52.849Z,6.87
2018-03-20T11:58:18.941Z,7.39
2018-03-20T12:00:45.025Z,7.58
2018-03-20T12:03:11.242Z,7.69
2018-03-20T12:05:37.390Z,6.95
2018-03-20T12:08:15.672Z,6.65
2018-03-20T12:10:41.768Z,6.85
2018-03-20T12:13:07.830Z,7.00
2018-03-20T12:15:34.056Z,7.13
2018-03-20T12:18:00.114Z,7.37
2018-03-20T12:20:26.217Z,6.97
2018-03-20T12:22:52.384Z,6.59
2018-03-20T12:25:18.525Z,7.43
2018-03-20T12:27:44.569Z,7.17
2018-03-20T12:30:10.626Z,7.49
2018-03-20T12:32:36.889Z,7.62
2018-03-20T12:37:56.094Z,7.16
2018-03-20T12:40:22.176Z,7.43
2018-03-20T12:42:48.326Z,7.87
2018-03-20T12:45:14.401Z,7.59
2018-03-20T12:47:40.404Z,7.32
2018-03-20T12:50:06.475Z,6.83
2018-03-20T12:52:33.336Z,7.01
2018-03-20T12:54:59.402Z,7.45
2018-03-20T12:57:25.452Z,7.80
2018-03-20T12:59:51.528Z,7.90
2018-03-20T13:02:17.628Z,7.94
2018-03-20T13:04:43.856Z,8.08
2018-03-20T13:07:09.878Z,8.13
2018-03-20T13:09:35.894Z,8.08
2018-03-20T13:12:01.992Z,7.97
2018-03-20T13:14:28.240Z,7.57
2018-03-20T13:16:54.326Z,7.96
2018-03-20T13:19:20.401Z,8.10
2018-03-20T13:21:46.416Z,8.05
2018-03-20T13:24:12.551Z,8.58
2018-03-20T13:26:38.628Z,8.91
2018-03-20T13:29:04.723Z,9.03
2018-03-20T13:31:30.760Z,9.42
2018-03-20T13:33:56.843Z,9.55
2018-03-20T13:36:23.045Z,9.45
2018-03-20T13:38:49.112Z,9.75
2018-03-20T13:41:15.270Z,9.62
2018-03-20T13:43:41.491Z,9.54
2018-03-20T13:46:07.659Z,10.05
2018-03-20T13:48:33.763Z,10.29
2018-03-20T13:50:59.822Z,9.98
2018-03-20T13:53:26.791Z,10.10
2018-03-20T13:55:52.928Z,10.65
2018-03-20T13:58:18.941Z,10.41
2018-03-20T14:00:45.095Z,10.62
2018-03-20T14:03:11.155Z,10.73
2018-03-20T14:05:37.208Z,10.28
2018-03-20T14:08:03.325Z,10.85
2018-03-20T14:10:29.353Z,10.81
2018-03-20T14:12:55.550Z,10.00
2018-03-20T14:15:21.603Z,10.29
2018-03-20T14:17:47.643Z,10.47
2018-03-20T14:20:13.709Z,10.32
2018-03-20T14:22:39.756Z,10.31
2018-03-20T14:25:05.812Z,10.16
2018-03-20T14:27:31.919Z,9.40
2018-03-20T14:29:57.988Z,8.94
2018-03-20T14:32:24.160Z,9.35
2018-03-20T14:34:50.237Z,9.24
2018-03-20T14:37:16.402Z,9.55
2018-03-20T14:39:42.509Z,9.86
2018-03-20T14:42:08.552Z,10.00
2018-03-20T14:44:34.615Z,10.36
2018-03-20T14:47:00.669Z,10.09
2018-03-20T14:49:26.710Z,10.29
2018-03-20T14:51:52.776Z,9.91
2018-03-20T14:54:18.868Z,9.98
2018-03-20T14:56:44.908Z,10.25
2018-03-20T14:59:10.998Z,10.63
2018-03-20T15:01:37.036Z,10.39
2018-03-20T15:04:03.247Z,10.46
2018-03-20T15:06:29.296Z,10.00
2018-03-20T15:08:55.349Z,10.39
2018-03-20T15:11:21.402Z,10.49
2018-03-20T15:13:47.547Z,10.17
2018-03-20T15:16:13.643Z,10.42
2018-03-20T15:18:39.696Z,10.43
2018-03-20T15:21:05.775Z,9.78
2018-03-20T15:23:31.830Z,10.15
2018-03-20T15:25:57.847Z,9.84
2018-03-20T15:28:23.962Z,9.99
2018-03-20T15:30:49.988Z,9.53
2018-03-20T15:33:16.046Z,9.18
2018-03-20T15:35:42.202Z,9.30
2018-03-20T15:38:08.299Z,9.00
2018-03-20T15:40:34.388Z,9.39
2018-03-20T15:43:00.503Z,8.93
2018-03-20T15:45:26.709Z,9.05
2018-03-20T15:47:52.757Z,9.00
2018-03-20T15:50:18.825Z,9.07
2018-03-20T15:52:44.848Z,8.79
2018-03-20T15:55:11.062Z,8.29
2018-03-20T15:57:37.118Z,8.83
2018-03-20T16:00:03.170Z,8.69
2018-03-20T16:02:29.267Z,8.39
2018-03-20T16:04:55.506Z,8.41
2018-03-20T16:07:21.588Z,8.37
2018-03-20T16:09:47.673Z,8.32
2018-03-20T16:12:13.755Z,8.18
2018-03-20T16:14:39.857Z,8.20
2018-03-20T16:17:05.896Z,8.04
2018-03-20T16:19:32.132Z,8.15
2018-03-20T16:21:58.194Z,7.86
2018-03-20T16:24:24.247Z,7.66
2018-03-20T16:26:50.427Z,7.64
2018-03-20T16:29:16.505Z,7.51
2018-03-20T16:31:42.586Z,7.18
2018-03-20T16:34:08.759Z,7.03
2018-03-20T16:36:34.825Z,6.85
2018-03-20T16:39:01.091Z,6.73
2018-03-20T16:41:27.214Z,6.63
2018-03-20T16:43:53.250Z,6.39
2018-03-20T16:46:19.322Z,6.36
2018-03-20T16:48:45.350Z,6.10
2018-03-20T16:51:11.487Z,6.00
2018-03-20T16:53:37.563Z,5.84
2018-03-20T16:56:03.617Z,5.68
2018-03-20T16:58:29.785Z,5.50
2018-03-20T17:00:55.849Z,5.44
2018-03-20T17:03:21.910Z,5.47
2018-03-20T17:05:48.183Z,5.31
2018-03-20T17:08:14.474Z,5.17
2018-03-20T17:10:41.142Z,5.19
2018-03-20T17:13:07.232Z,5.07
2018-03-20T17:15:33.351Z,4.98
2018-03-20T17:17:59.796Z,4.94
2018-03-20T17:20:25.914Z,4.90
2018-03-20T17:22:52.017Z,4.82
2018-03-20T17:25:18.195Z,4.74
2018-03-20T17:27:44.330Z,4.63
2018-03-20T17:30:10.430Z,4.51
2018-03-20T17:32:36.507Z,4.42
2018-03-20T17:35:02.847Z,4.31
2018-03-20T17:37:28.976Z,4.31
2018-03-20T17:39:55.353Z,4.20
2018-03-20T17:42:21.432Z,4.14
2018-03-20T17:44:47.850Z,4.11
2018-03-20T17:47:13.890Z,4.05
2018-03-20T17:49:40.118Z,3.98
2018-03-20T17:52:06.173Z,3.92
2018-03-20T17:54:32.422Z,3.78
2018-03-20T17:56:58.486Z,3.75
2018-03-20T17:59:24.575Z,3.67
2018-03-20T18:01:50.722Z,3.66
2018-03-20T18:04:16.964Z,3.62
2018-03-20T18:06:43.096Z,3.57
2018-03-20T18:09:09.314Z,3.52
2018-03-20T18:11:35.430Z,3.45
2018-03-20T18:14:01.843Z,3.40
2018-03-20T18:16:27.861Z,3.36
2018-03-20T18:18:53.979Z,3.31
2018-03-20T18:21:20.071Z,3.26
2018-03-20T18:23:46.214Z,3.19
2018-03-20T18:26:12.305Z,3.17
2018-03-20T18:28:38.436Z,3.17
2018-03-20T18:31:04.781Z,3.05
2018-03-20T18:33:30.867Z,3.02
2018-03-20T18:35:57.573Z,3.00
2018-03-20T18:38:23.669Z,2.98
2018-03-20T18:43:42.989Z,2.86
2018-03-20T18:46:09.081Z,2.80
2018-03-20T18:48:35.176Z,2.68
2018-03-20T18:51:01.354Z,2.59
2018-03-20T18:53:27.672Z,2.47
2018-03-20T18:55:53.742Z,2.48
2018-03-20T18:58:20.040Z,2.44
2018-03-20T19:00:46.167Z,2.36
2018-03-20T19:03:12.275Z,2.40
2018-03-20T19:05:38.457Z,2.48
2018-03-20T19:08:04.503Z,2.49
2018-03-20T19:10:30.758Z,2.48
2018-03-20T19:12:56.854Z,2.45
2018-03-20T19:15:23.933Z,2.40
2018-03-20T19:17:50.016Z,2.32
2018-03-20T19:20:16.105Z,2.33
2018-03-20T19:22:42.408Z,2.28
2018-03-20T19:25:09.015Z,2.27
2018-03-20T19:27:49.992Z,2.26
2018-03-20T19:30:16.011Z,2.19
2018-03-20T19:32:42.144Z,2.08
2018-03-20T19:35:09.016Z,2.07
2018-03-20T19:37:36.080Z,1.98
2018-03-20T19:40:02.265Z,1.86
2018-03-20T19:42:28.361Z,1.74
2018-03-20T19:44:54.681Z,1.69
2018-03-20T19:47:21.558Z,1.59
2018-03-20T19:49:47.960Z,1.56
2018-03-20T19:52:14.094Z,1.53
2018-03-20T19:54:40.793Z,1.54
2018-03-20T19:57:07.058Z,1.55
2018-03-20T19:59:33.189Z,1.59
2018-03-20T20:01:59.445Z,1.53
2018-03-20T20:04:25.552Z,1.48
2018-03-20T20:06:51.823Z,1.42
2018-03-20T20:09:18.010Z,1.31
2018-03-20T20:11:44.218Z,1.16
2018-03-20T20:14:10.643Z,1.09
2018-03-20T20:16:36.722Z,0.98
2018-03-20T20:19:06.904Z,0.87
2018-03-20T20:21:33.270Z,0.83
2018-03-20T20:23:59.631Z,0.71
2018-03-20T20:26:25.743Z,0.64
2018-03-20T20:28:52.110Z,0.60
2018-03-20T20:31:19.327Z,0.61
2018-03-20T20:33:45.431Z,0.58
2018-03-20T20:36:11.591Z,0.53
2018-03-20T20:38:37.777Z,0.46
2018-03-20T20:41:04.930Z,0.45
2018-03-20T20:43:31.079Z,0.38
2018-03-20T20:45:57.399Z,0.37
2018-03-20T20:48:23.531Z,0.32
2018-03-20T20:50:49.821Z,0.29
2018-03-20T20:53:16.114Z,0.31
2018-03-20T20:55:42.251Z,0.30
2018-03-20T20:58:08.320Z,0.27
2018-03-20T21:00:34.427Z,0.20
2018-03-20T21:03:00.459Z,0.18
2018-03-20T21:05:26.565Z,0.16
2018-03-20T21:07:52.870Z,0.11
2018-03-20T21:10:18.969Z,0.07
2018-03-20T21:12:45.123Z,0.03
2018-03-20T21:15:11.331Z,0.01
2018-03-20T21:17:37.460Z,-0.03
2018-03-20T21:20:03.611Z,-0.08
2018-03-20T21:22:30.162Z,-0.07
2018-03-20T21:24:56.228Z,-0.09
2018-03-20T21:27:22.509Z,-0.10
2018-03-20T21:29:49.210Z,-0.07
2018-03-20T21:32:15.344Z,-0.15
2018-03-20T21:34:41.713Z,-0.16
2018-03-20T21:37:07.863Z,-0.20
2018-03-20T21:39:34.091Z,-0.21
2018-03-20T21:42:00.231Z,-0.22
2018-03-20T21:44:26.326Z,-0.25
2018-03-20T21:46:52.432Z,-0.28
2018-03-20T21:49:18.517Z,-0.19
2018-03-20T21:51:44.628Z,-0.12
2018-03-20T21:54:10.685Z,-0.11
2018-03-20T21:56:36.965Z,-0.17
2018-03-20T21:59:03.000Z,-0.26
2018-03-20T22:01:29.069Z,-0.36
2018-03-20T22:03:55.134Z,-0.46
2018-03-20T22:06:21.201Z,-0.49
2018-03-20T22:08:47.274Z,-0.62
2018-03-20T22:11:13.568Z,-0.68
2018-03-20T22:13:39.680Z,-0.74
2018-03-20T22:16:05.721Z,-0.71
2018-03-20T22:18:31.814Z,-0.71
2018-03-20T22:20:57.865Z,-0.68
2018-03-20T22:23:24.019Z,-0.71
2018-03-20T22:25:50.216Z,-0.67
2018-03-20T22:28:16.265Z,-0.71
2018-03-20T22:30:42.417Z,-0.74
2018-03-20T22:33:08.443Z,-0.81
2018-03-20T22:35:34.583Z,-0.82
2018-03-20T22:38:00.665Z,-0.85
2018-03-20T22:40:27.793Z,-0.90
2018-03-20T22:42:53.854Z,-0.95
2018-03-20T22:45:20.050Z,-1.05
2018-03-20T22:47:46.128Z,-1.09
2018-03-20T22:50:12.171Z,-1.06
2018-03-20T22:52:38.209Z,-1.08
2018-03-20T22:55:04.281Z,-1.10
2018-03-20T22:57:30.841Z,-1.17
2018-03-20T22:59:56.900Z,-1.20
2018-03-20T23:02:22.922Z,-1.22
2018-03-20T23:07:42.326Z,-1.30
2018-03-20T23:10:08.396Z,-1.36
2018-03-20T23:12:34.517Z,-1.37
2018-03-20T23:15:00.572Z,-1.36
2018-03-20T23:17:26.645Z,-1.34
2018-03-20T23:19:52.689Z,-1.37
2018-03-20T23:22:18.727Z,-1.39
2018-03-20T23:24:44.760Z,-1.43
2018-03-20T23:27:10.845Z,-1.40
2018-03-20T23:29:36.981Z,-1.41
2018-03-20T23:32:03.073Z,-1.31
2018-03-20T23:34:29.300Z,-1.36
2018-03-20T23:36:55.539Z,-1.43
2018-03-20T23:39:21.662Z,-1.44
2018-03-20T23:41:47.725Z,-1.43
2018-03-20T23:44:13.794Z,-1.45
2018-03-20T23:46:40.071Z,-1.52
2018-03-20T23:49:06.111Z,-1.57
2018-03-20T23:51:32.286Z,-1.56
2018-03-20T23:53:58.309Z,-1.57
2018-03-20T23:56:24.396Z,-1.58
2018-03-20T23:58:50.466Z,-1.57
